createdAt,value
2018-04-14T00:00:31.457Z,8.02
2018-04-14T00:06:32.289Z,7.1
2018-04-14T00:10:34.152Z,6.44
2018-04-14T00:16:35.123Z,6.67
2018-04-14T00:20:36.108Z,6.82
2018-04-14T00:22:36.816Z,7.12
2018-04-14T00:26:37.850Z,7.32
2018-04-14T00:32:38.583Z,7.78
2018-04-14T00:36:39.456Z,7.4
2018-04-14T00:42:40.152Z,6.92
2018-04-14T00:48:40.901Z,6.54
2018-04-14T00:52:41.743Z,6.2
2018-04-14T00:58:42.523Z,6.14
2018-04-14T01:02:43.317Z,5.84
2018-04-14T01:04:43.980Z,6.26
2018-04-14T01:08:44.829Z,5.84
2018-04-14T01:14:45.545Z,6.91
2018-04-14T01:18:46.532Z,7.23
2018-04-14T01:24:47.340Z,6.51
2018-04-14T01:28:48.110Z,5.69
2018-04-14T01:30:48.816Z,6.53
2018-04-14T01:34:49.632Z,6.71
2018-04-14T01:40:50.385Z,5.61
2018-04-14T01:50:52.916Z,5.86
2018-04-14T01:50:53.199Z,5.73
2018-04-14T01:56:53.960Z,7.04
2018-04-14T02:00:54.691Z,6.6
2018-04-14T02:06:55.452Z,6.89
2018-04-14T02:10:56.230Z,6.39
2018-04-14T02:12:56.924Z,7.07
2018-04-14T02:16:57.685Z,5.92
2018-04-14T02:22:58.397Z,7.41
2018-04-14T02:26:59.020Z,6.48
2018-04-14T02:32:59.821Z,6.81
2018-04-14T02:37:00.520Z,6.27
2018-04-14T02:39:01.213Z,6.73
2018-04-14T02:43:01.955Z,6.48
2018-04-14T02:49:02.717Z,6.07
2018-04-14T02:53:03.475Z,6.56
2018-04-14T02:59:04.238Z,5.94
2018-04-14T03:05:05.002Z,7.12
2018-04-14T03:09:05.760Z,6.68
2018-04-14T03:15:07.256Z,9.39
2018-04-14T03:19:08.270Z,8.85
2018-04-14T03:21:09.044Z,8.09
2018-04-14T03:25:09.812Z,7.89
2018-04-14T03:31:10.598Z,7
2018-04-14T03:35:11.358Z,6.89
2018-04-14T03:41:12.159Z,8.23
2018-04-14T03:45:13.256Z,7.42
2018-04-14T03:47:14.033Z,7.96
2018-04-14T03:51:14.817Z,7.93
2018-04-14T03:57:15.547Z,7.56
2018-04-14T04:01:16.407Z,7.34
2018-04-14T04:07:17.244Z,7.85
2018-04-14T04:13:18.043Z,7.95
2018-04-14T04:17:18.761Z,8.15
2018-04-14T04:23:19.605Z,9.03
2018-04-14T04:27:20.351Z,9.68
2018-04-14T04:29:21.161Z,10.31
2018-04-14T04:33:21.961Z,10.53
2018-04-14T04:39:22.686Z,13.03
2018-04-14T04:43:23.408Z,13.03
2018-04-14T04:49:24.250Z,11.75
2018-04-14T04:53:25.023Z,11.43
2018-04-14T04:55:25.799Z,10.66
2018-04-14T04:59:26.639Z,10.99
2018-04-14T05:05:27.208Z,8.99
2018-04-14T05:09:27.924Z,8.23
2018-04-14T05:15:28.676Z,6.9
2018-04-14T05:21:29.497Z,6.56
2018-04-14T05:21:29.552Z,6.56
2018-04-14T05:25:30.340Z,6.24
2018-04-14T05:31:31.123Z,6.91
2018-04-14T05:35:32.018Z,6.51
2018-04-14T05:37:32.780Z,6.32
2018-04-14T05:41:33.431Z,6.09
2018-04-14T05:47:34.259Z,6.49
2018-04-14T05:51:35.070Z,6.21
2018-04-14T05:57:35.689Z,8.05
2018-04-14T06:03:36.483Z,8.71
2018-04-14T06:07:37.268Z,8.77
2018-04-14T06:13:38.004Z,8.93
2018-04-14T06:17:38.760Z,9.33
2018-04-14T06:23:39.607Z,9.64
2018-04-14T06:29:40.361Z,10.45
2018-04-14T06:33:41.419Z,11.03
2018-04-14T06:39:42.200Z,10.58
2018-04-14T06:43:42.940Z,10.84
2018-04-14T06:45:43.658Z,11.51
2018-04-14T06:49:44.590Z,10.42
2018-04-14T06:55:45.384Z,16.82
2018-04-14T06:59:46.262Z,17.57
2018-04-14T07:05:47.336Z,28.72
2018-04-14T07:11:48.047Z,27.83
2018-04-14T07:15:48.749Z,25.48
2018-04-14T07:21:49.578Z,23.57
2018-04-14T07:25:50.336Z,23.99
2018-04-14T07:31:51.086Z,19.79
2018-04-14T07:37:51.899Z,19.27
2018-04-14T07:41:52.773Z,17.47
2018-04-14T07:47:53.465Z,24.61
2018-04-14T07:51:54.258Z,23.99
2018-04-14T07:53:54.955Z,22.43
2018-04-14T07:57:56.248Z,21.3
2018-04-14T08:03:57.334Z,16.92
2018-04-14T08:07:58.147Z,15.34
2018-04-14T08:13:58.899Z,12.29
2018-04-14T08:19:59.831Z,10.31
2018-04-14T08:24:00.709Z,8.36
2018-04-14T08:30:01.546Z,8.44
2018-04-14T08:34:02.103Z,8.34
2018-04-14T08:40:02.977Z,6.82
2018-04-14T08:46:03.813Z,4.7
2018-04-14T08:50:04.681Z,4.22
2018-04-14T08:56:05.689Z,4.03
2018-04-14T09:00:06.643Z,4.49
2018-04-14T09:02:07.378Z,3.99
2018-04-14T09:06:08.156Z,3.18
2018-04-14T09:12:08.904Z,3.66
2018-04-14T09:16:09.648Z,3.32
2018-04-14T09:22:10.419Z,3.69
2018-04-14T09:28:11.139Z,3.58
2018-04-14T09:32:11.879Z,3.57
2018-04-14T09:38:12.621Z,3.59
2018-04-14T09:42:13.337Z,3.27
2018-04-14T09:44:14.147Z,3.61
2018-04-14T09:48:14.886Z,3.25
2018-04-14T09:54:15.693Z,3.74
2018-04-14T09:58:16.462Z,2.97
2018-04-14T10:04:17.174Z,3.39
2018-04-14T10:08:17.836Z,3.61
2018-04-14T10:10:18.518Z,3.94
2018-04-14T10:14:19.389Z,3.63
2018-04-14T10:20:20.089Z,3.56
2018-04-14T10:24:20.979Z,3.4
2018-04-14T10:30:26.207Z,3.3
2018-04-14T10:36:22.895Z,3.71
2018-04-14T10:40:23.632Z,3.17
2018-04-14T10:46:24.371Z,3.89
2018-04-14T10:50:25.252Z,3.54
2018-04-14T10:52:25.942Z,3.49
2018-04-14T10:56:26.737Z,3.29
2018-04-14T11:02:27.622Z,3.72
2018-04-14T11:06:28.351Z,3.63
2018-04-14T11:12:29.137Z,3.27
2018-04-14T11:18:30.101Z,3.44
2018-04-14T11:22:30.778Z,3.52
2018-04-14T11:28:31.647Z,3.75
2018-04-14T11:32:32.415Z,3.42
2018-04-14T11:38:33.213Z,3.39
2018-04-14T11:44:34.155Z,3.88
2018-04-14T11:48:34.900Z,3.38
2018-04-14T11:54:35.742Z,3.8
2018-04-14T11:58:36.494Z,3.33
2018-04-14T12:00:37.792Z,3.55
2018-04-14T12:04:38.723Z,3.83
2018-04-14T12:10:39.417Z,3.71
2018-04-14T12:14:40.165Z,3.37
2018-04-14T12:20:40.975Z,3.49
2018-04-14T12:26:41.805Z,3.89
2018-04-14T12:30:42.607Z,3.62
2018-04-14T12:36:43.351Z,4.26
2018-04-14T12:40:44.215Z,4.08
2018-04-14T12:46:44.969Z,3.53
2018-04-14T12:52:45.715Z,3.93
2018-04-14T12:56:46.442Z,3.74
2018-04-14T13:02:47.305Z,3.88
2018-04-14T13:06:48.683Z,3.97
2018-04-14T13:08:49.375Z,3.73
2018-04-14T13:12:50.245Z,4.09
2018-04-14T13:18:50.890Z,4.05
2018-04-14T13:22:51.816Z,3.75
2018-04-14T13:28:52.569Z,4.31
2018-04-14T13:34:53.336Z,4.31
2018-04-14T13:38:54.201Z,3.89
2018-04-14T13:44:55.103Z,4.6
2018-04-14T13:48:55.901Z,4.35
2018-04-14T13:50:56.691Z,4.75
2018-04-14T13:54:57.618Z,4.28
2018-04-14T14:00:58.330Z,4.72
2018-04-14T14:04:59.032Z,4.16
2018-04-14T14:10:59.931Z,4.47
2018-04-14T14:15:00.673Z,4.51
2018-04-14T14:17:01.447Z,4.17
2018-04-14T14:21:02.258Z,4.04
2018-04-14T14:27:03.035Z,4.53
2018-04-14T14:31:04.048Z,4.27
2018-04-14T14:37:04.781Z,3.88
2018-04-14T14:43:05.529Z,3.98
2018-04-14T14:47:06.623Z,3.92
2018-04-14T14:53:07.473Z,4.29
2018-04-14T14:57:08.329Z,4.12
2018-04-14T14:59:09.072Z,4.17
2018-04-14T15:03:09.956Z,4
2018-04-14T15:09:10.776Z,4.13
2018-04-14T15:13:11.669Z,3.81
2018-04-14T15:19:12.473Z,4.38
2018-04-14T15:25:13.339Z,3.74
2018-04-14T15:29:14.039Z,3.43
2018-04-14T15:35:14.975Z,3.79
2018-04-14T15:39:15.687Z,4.04
2018-04-14T15:45:16.712Z,3.61
2018-04-14T15:51:17.430Z,3.03
2018-04-14T15:55:18.281Z,3.1
2018-04-14T16:01:19.052Z,2.34
2018-04-14T16:05:19.761Z,2.13
2018-04-14T16:07:20.538Z,2.4
2018-04-14T16:11:21.313Z,2.18
2018-04-14T16:17:22.046Z,2.1
2018-04-14T16:21:22.850Z,1.79
2018-04-14T16:27:23.666Z,1.52
2018-04-14T16:33:24.469Z,1.89
2018-04-14T16:37:25.196Z,1.66
2018-04-14T16:43:25.993Z,1.5
2018-04-14T16:47:26.781Z,1.33
2018-04-14T16:49:27.511Z,1.64
2018-04-14T16:53:28.207Z,1.67
2018-04-14T16:59:28.988Z,1.79
2018-04-14T17:03:29.730Z,1.7
2018-04-14T17:09:30.699Z,1.71
2018-04-14T17:13:31.491Z,1.72
2018-04-14T17:15:32.168Z,1.73
2018-04-14T17:19:33.056Z,1.61
2018-04-14T17:25:33.802Z,1.77
2018-04-14T17:29:34.744Z,1.42
2018-04-14T17:35:35.457Z,1.62
2018-04-14T17:41:36.159Z,1.74
2018-04-14T17:45:37.000Z,1.88
2018-04-14T17:51:37.717Z,1.88
2018-04-14T17:55:38.685Z,1.64
2018-04-14T17:57:39.455Z,1.73
2018-04-14T18:01:40.192Z,1.63
2018-04-14T18:07:40.993Z,1.83
2018-04-14T18:11:41.798Z,1.86
2018-04-14T18:17:42.727Z,1.49
2018-04-14T18:23:43.632Z,1.51
2018-04-14T18:27:44.482Z,1.41
2018-04-14T18:33:45.243Z,1.81
2018-04-14T18:37:46.132Z,1.56
2018-04-14T18:43:47.007Z,1.67
2018-04-14T18:49:47.841Z,1.85
2018-04-14T18:53:48.786Z,1.47
2018-04-14T18:59:49.700Z,1.56
2018-04-14T19:03:50.482Z,1.37
2018-04-14T19:05:51.297Z,1.69
2018-04-14T19:09:52.137Z,1.43
2018-04-14T19:15:52.933Z,1.78
2018-04-14T19:19:53.944Z,1.76
2018-04-14T19:25:54.843Z,1.56
2018-04-14T19:31:55.651Z,1.33
2018-04-14T19:35:56.487Z,1.51
2018-04-14T19:41:57.418Z,1.88
2018-04-14T19:45:58.076Z,1.49
2018-04-14T19:47:58.951Z,1.45
2018-04-14T19:51:59.964Z,1.14
2018-04-14T19:58:00.760Z,1.51
2018-04-14T20:02:01.682Z,1.34
2018-04-14T20:08:02.590Z,1.54
2018-04-14T20:12:03.503Z,1.59
2018-04-14T20:14:04.353Z,1.71
2018-04-14T20:18:05.195Z,1.19
2018-04-14T20:24:06.193Z,1.63
2018-04-14T20:28:07.476Z,1.43
2018-04-14T20:34:08.421Z,1.73
2018-04-14T20:40:09.268Z,2.15
2018-04-14T20:44:10.148Z,1.97
2018-04-14T20:50:10.920Z,1.37
2018-04-14T20:54:11.976Z,1.27
2018-04-14T20:56:12.771Z,1.67
2018-04-14T21:00:13.829Z,1.33
2018-04-14T21:06:14.577Z,1.89
2018-04-14T21:10:15.313Z,1.96
2018-04-14T21:16:16.322Z,1.86
2018-04-14T21:20:17.091Z,1.39
2018-04-14T21:22:17.877Z,1.72
2018-04-14T21:26:18.684Z,1.97
2018-04-14T21:32:19.498Z,1.52
2018-04-14T21:36:20.263Z,2.53
2018-04-14T21:42:21.224Z,1.84
2018-04-14T21:48:22.030Z,1.71
2018-04-14T21:52:22.989Z,1.36
2018-04-14T21:58:23.737Z,1.59
2018-04-14T22:02:24.749Z,1.25
2018-04-14T22:04:25.656Z,1.24
2018-04-14T22:08:26.354Z,1.56
2018-04-14T22:14:27.337Z,1.9
2018-04-14T22:18:28.256Z,1.68
2018-04-14T22:24:29.493Z,1.71
2018-04-14T22:30:30.951Z,1.69
2018-04-14T22:34:31.826Z,1.57
2018-04-14T22:40:32.602Z,1.59
2018-04-14T22:44:33.482Z,1.63
2018-04-14T22:50:34.155Z,1.48
2018-04-14T22:56:34.862Z,1.49
2018-04-14T23:00:35.898Z,1.49
2018-04-14T23:06:36.718Z,1.91
2018-04-14T23:10:37.441Z,1.47
2018-04-14T23:12:38.181Z,1.58
2018-04-14T23:16:38.990Z,1.61
2018-04-14T23:22:39.820Z,1.72
2018-04-14T23:26:40.628Z,1.8
2018-04-14T23:32:41.420Z,1.77
2018-04-14T23:38:42.166Z,1.53
2018-04-14T23:42:43.316Z,1.4
2018-04-14T23:48:44.052Z,1.86
2018-04-14T23:52:44.829Z,1.61
2018-04-14T23:54:45.685Z,1.59
2018-04-14T23:58:46.717Z,1.57
